createdAt,value
2023-02-06T00:02:05.115Z,8.43
2023-02-06T00:04:31.705Z,9.23
2023-02-06T00:06:58.282Z,9.10
2023-02-06T00:09:24.827Z,9.37
2023-02-06T00:11:51.391Z,10.50
2023-02-06T00:14:17.991Z,8.70
2023-02-06T00:16:44.556Z,10.87
2023-02-06T00:19:11.283Z,9.23
2023-02-06T00:21:37.862Z,10.30
2023-02-06T00:24:04.938Z,12.17
2023-02-06T00:26:31.785Z,10.53
2023-02-06T00:28:58.504Z,10.90
2023-02-06T00:31:25.178Z,11.93
2023-02-06T00:33:51.863Z,9.00
2023-02-06T00:36:18.438Z,10.17
2023-02-06T00:38:45.005Z,9.77
2023-02-06T00:41:11.606Z,8.80
2023-02-06T00:43:38.236Z,9.47
2023-02-06T00:46:05.061Z,9.20
2023-02-06T00:48:31.671Z,10.47
2023-02-06T00:50:58.251Z,9.63
2023-02-06T00:53:24.881Z,10.60
2023-02-06T00:55:51.432Z,10.63
2023-02-06T00:58:18.057Z,10.40
2023-02-06T01:00:45.061Z,10.67
2023-02-06T01:03:11.856Z,9.57
2023-02-06T01:05:38.777Z,12.47
2023-02-06T01:08:05.464Z,10.03
2023-02-06T01:10:32.448Z,10.07
2023-02-06T01:12:59.091Z,10.73
2023-02-06T01:15:26.161Z,10.87
2023-02-06T01:17:53.006Z,11.67
2023-02-06T01:20:19.697Z,9.77
2023-02-06T01:22:46.273Z,9.50
2023-02-06T01:25:12.898Z,8.60
2023-02-06T01:27:39.651Z,9.23
2023-02-06T01:30:07.653Z,9.60
2023-02-06T01:32:42.278Z,9.53
2023-02-06T01:35:10.971Z,8.33
2023-02-06T01:37:39.076Z,9.33
2023-02-06T01:40:07.911Z,8.73
2023-02-06T01:42:38.823Z,8.90
2023-02-06T01:45:37.946Z,8.70
2023-02-06T01:48:14.209Z,7.97
2023-02-06T01:50:42.841Z,8.10
2023-02-06T01:53:09.684Z,7.10
2023-02-06T01:55:38.134Z,8.60
2023-02-06T01:58:05.538Z,7.90
2023-02-06T02:00:32.754Z,7.80
2023-02-06T02:02:59.481Z,8.10
2023-02-06T02:05:26.075Z,10.57
2023-02-06T02:08:14.734Z,9.13
2023-02-06T02:10:41.312Z,9.50
2023-02-06T02:13:07.889Z,10.50
2023-02-06T02:15:56.457Z,9.47
2023-02-06T02:18:59.584Z,9.80
2023-02-06T02:21:53.671Z,10.57
2023-02-06T02:24:38.509Z,7.30
2023-02-06T02:27:34.223Z,9.70
2023-02-06T02:30:38.581Z,8.30
2023-02-06T02:33:30.481Z,7.37
2023-02-06T02:36:14.473Z,8.07
2023-02-06T02:38:58.899Z,9.17
2023-02-06T02:41:44.941Z,8.73
2023-02-06T02:44:19.718Z,7.03
2023-02-06T02:46:50.559Z,8.23
2023-02-06T02:49:20.878Z,7.87
2023-02-06T02:51:49.189Z,7.07
2023-02-06T02:54:15.779Z,7.93
2023-02-06T02:56:42.633Z,8.43
2023-02-06T02:59:24.137Z,7.73
2023-02-06T03:02:11.599Z,7.30
2023-02-06T03:04:48.086Z,8.70
2023-02-06T03:08:05.437Z,8.30
2023-02-06T03:11:03.319Z,7.33
2023-02-06T03:13:35.262Z,8.53
2023-02-06T03:16:16.716Z,10.03
2023-02-06T03:19:02.323Z,6.60
2023-02-06T03:21:29.708Z,8.20
2023-02-06T03:24:01.067Z,8.67
2023-02-06T03:26:30.640Z,8.80
2023-02-06T03:29:01.466Z,7.93
2023-02-06T03:31:54.005Z,8.53
2023-02-06T03:34:31.681Z,8.20
2023-02-06T03:36:58.352Z,7.07
2023-02-06T03:39:25.114Z,7.77
2023-02-06T03:41:54.385Z,7.40
2023-02-06T03:44:26.346Z,7.43
2023-02-06T03:46:55.580Z,7.20
2023-02-06T03:49:25.593Z,6.70
2023-02-06T03:51:58.470Z,7.63
2023-02-06T03:54:27.044Z,5.80
2023-02-06T03:56:57.057Z,6.27
2023-02-06T03:59:24.396Z,7.57
2023-02-06T04:01:55.121Z,7.97
2023-02-06T04:04:28.966Z,9.57
2023-02-06T04:07:00.204Z,6.67
2023-02-06T04:09:27.798Z,6.03
2023-02-06T04:11:54.370Z,7.47
2023-02-06T04:14:20.920Z,7.73
2023-02-06T04:16:48.098Z,5.90
2023-02-06T04:19:14.670Z,7.60
2023-02-06T04:21:41.247Z,5.90
2023-02-06T04:24:08.079Z,6.60
2023-02-06T04:26:34.699Z,6.40
2023-02-06T04:29:01.278Z,8.37
2023-02-06T04:31:27.904Z,8.17
2023-02-06T04:33:54.529Z,5.50
2023-02-06T04:36:21.202Z,6.30
2023-02-06T04:38:47.838Z,5.50
2023-02-06T04:41:14.447Z,7.03
2023-02-06T04:43:41.009Z,5.03
2023-02-06T04:46:07.702Z,5.03
2023-02-06T04:48:34.561Z,6.63
2023-02-06T04:51:01.097Z,6.40
2023-02-06T04:53:27.657Z,5.83
2023-02-06T04:55:56.302Z,7.27
2023-02-06T04:58:22.848Z,7.77
2023-02-06T05:00:50.324Z,6.63
2023-02-06T05:03:16.904Z,7.70
2023-02-06T05:05:43.455Z,5.33
2023-02-06T05:08:10.034Z,7.37
2023-02-06T05:10:36.641Z,6.53
2023-02-06T05:13:03.248Z,7.47
2023-02-06T05:15:29.822Z,6.53
2023-02-06T05:17:56.410Z,8.20
2023-02-06T05:20:23.013Z,7.67
2023-02-06T05:22:49.577Z,7.33
2023-02-06T05:25:16.189Z,6.83
2023-02-06T05:27:42.745Z,6.70
2023-02-06T05:30:10.143Z,9.37
2023-02-06T05:32:36.723Z,6.70
2023-02-06T05:35:03.384Z,6.90
2023-02-06T05:37:29.946Z,7.03
2023-02-06T05:39:58.533Z,8.37
2023-02-06T05:42:26.213Z,9.77
2023-02-06T05:44:52.941Z,8.70
2023-02-06T05:47:19.681Z,7.90
2023-02-06T05:49:48.181Z,12.77
2023-02-06T05:52:15.814Z,8.57
2023-02-06T05:54:42.378Z,8.57
2023-02-06T05:57:09.192Z,10.27
2023-02-06T05:59:35.751Z,8.43
2023-02-06T06:02:02.456Z,7.93
2023-02-06T06:04:29.128Z,8.53
2023-02-06T06:06:56.256Z,9.93
2023-02-06T06:09:22.932Z,8.30
2023-02-06T06:11:51.165Z,10.27
2023-02-06T06:14:17.822Z,10.07
2023-02-06T06:16:44.452Z,10.10
2023-02-06T06:19:11.096Z,10.27
2023-02-06T06:21:37.765Z,10.47
2023-02-06T06:24:04.566Z,9.90
2023-02-06T06:26:31.265Z,10.90
2023-02-06T06:28:57.869Z,10.10
2023-02-06T06:31:24.534Z,9.67
2023-02-06T06:33:51.153Z,12.17
2023-02-06T06:36:17.686Z,9.43
2023-02-06T06:38:44.312Z,9.27
2023-02-06T06:41:10.954Z,12.30
2023-02-06T06:43:37.651Z,11.93
2023-02-06T06:46:05.258Z,10.23
2023-02-06T06:48:32.621Z,10.27
2023-02-06T06:50:59.343Z,11.33
2023-02-06T06:53:25.917Z,11.57
2023-02-06T06:55:52.512Z,10.67
2023-02-06T06:58:19.131Z,10.20
2023-02-06T07:00:45.794Z,12.30
2023-02-06T07:03:12.722Z,12.77
2023-02-06T07:05:39.381Z,10.90
2023-02-06T07:08:06.288Z,11.17
2023-02-06T07:10:33.009Z,14.57
2023-02-06T07:12:59.624Z,10.23
2023-02-06T07:15:26.223Z,14.60
2023-02-06T07:17:52.814Z,10.50
2023-02-06T07:20:19.420Z,11.23
2023-02-06T07:22:47.415Z,11.70
2023-02-06T07:25:13.966Z,11.93
2023-02-06T07:27:40.589Z,12.07
2023-02-06T07:30:07.835Z,12.40
2023-02-06T07:32:36.737Z,13.77
2023-02-06T07:35:03.817Z,11.83
2023-02-06T07:37:30.399Z,14.67
2023-02-06T07:39:57.007Z,12.87
2023-02-06T07:42:23.553Z,15.23
2023-02-06T07:44:50.449Z,12.97
2023-02-06T07:47:17.398Z,13.87
2023-02-06T07:49:43.940Z,10.90
2023-02-06T07:52:10.652Z,10.77
2023-02-06T07:54:37.273Z,12.70
2023-02-06T07:57:04.023Z,13.00
2023-02-06T07:59:30.604Z,10.77
2023-02-06T08:01:57.356Z,14.17
2023-02-06T08:04:24.001Z,13.07
2023-02-06T08:06:50.627Z,15.73
2023-02-06T08:09:17.524Z,15.77
2023-02-06T08:11:44.357Z,15.83
2023-02-06T08:14:11.380Z,13.83
2023-02-06T08:16:39.215Z,12.00
2023-02-06T08:19:06.860Z,10.77
2023-02-06T08:21:33.488Z,12.40
2023-02-06T08:24:00.761Z,11.33
2023-02-06T08:26:29.059Z,12.83
2023-02-06T08:28:56.784Z,13.50
2023-02-06T08:31:26.731Z,10.23
2023-02-06T08:33:54.538Z,13.63
2023-02-06T08:36:22.833Z,14.77
2023-02-06T08:38:50.537Z,11.23
2023-02-06T08:41:24.354Z,14.77
2023-02-06T08:43:53.146Z,16.20
2023-02-06T08:46:20.746Z,15.47
2023-02-06T08:48:47.977Z,18.20
2023-02-06T08:51:15.298Z,14.87
2023-02-06T08:53:41.909Z,14.53
2023-02-06T08:56:11.473Z,15.23
2023-02-06T08:58:39.218Z,16.13
2023-02-06T09:01:10.881Z,19.50
2023-02-06T09:03:37.489Z,15.83
2023-02-06T09:06:10.314Z,15.50
2023-02-06T09:08:38.752Z,16.33
2023-02-06T09:11:15.599Z,15.20
2023-02-06T09:13:43.886Z,16.43
2023-02-06T09:16:11.912Z,19.87
2023-02-06T09:18:38.808Z,18.40
2023-02-06T09:21:07.364Z,19.67
2023-02-06T09:23:34.331Z,17.13
2023-02-06T09:26:00.936Z,17.27
2023-02-06T09:28:27.513Z,21.40
2023-02-06T09:30:54.161Z,19.27
2023-02-06T09:33:21.319Z,21.33
2023-02-06T09:35:48.218Z,22.90
2023-02-06T09:38:14.886Z,20.33
2023-02-06T09:40:41.667Z,25.07
2023-02-06T09:43:11.963Z,24.37
2023-02-06T09:45:39.966Z,25.30
2023-02-06T09:48:18.681Z,21.70
2023-02-06T09:51:13.515Z,22.03
2023-02-06T09:54:09.549Z,22.97
2023-02-06T09:56:48.630Z,24.67
2023-02-06T09:59:32.731Z,23.83
2023-02-06T10:02:32.197Z,26.00
2023-02-06T10:05:32.498Z,20.30
2023-02-06T10:08:34.478Z,20.53
2023-02-06T10:11:09.576Z,21.67
2023-02-06T10:13:49.663Z,19.50
2023-02-06T10:16:38.230Z,18.47
2023-02-06T10:19:15.176Z,23.50
2023-02-06T10:21:48.533Z,23.67
2023-02-06T10:24:34.294Z,19.20
2023-02-06T10:27:04.583Z,19.97
2023-02-06T10:29:33.942Z,23.57
2023-02-06T10:32:14.573Z,20.30
2023-02-06T10:35:21.899Z,18.13
2023-02-06T10:38:06.501Z,20.90
2023-02-06T10:40:53.179Z,26.67
2023-02-06T10:43:48.926Z,20.40
2023-02-06T10:46:43.394Z,18.53
2023-02-06T10:49:22.898Z,21.30
2023-02-06T10:51:56.787Z,17.10
2023-02-06T10:54:39.924Z,16.00
2023-02-06T10:57:17.213Z,15.63
2023-02-06T10:59:48.071Z,19.13
2023-02-06T11:03:06.837Z,16.47
2023-02-06T11:05:35.289Z,13.30
2023-02-06T11:08:13.788Z,17.77
2023-02-06T11:10:40.631Z,16.83
2023-02-06T11:13:11.198Z,18.97
2023-02-06T11:15:57.677Z,14.67
2023-02-06T11:18:36.505Z,17.97
2023-02-06T11:21:03.711Z,17.20
2023-02-06T11:23:34.580Z,17.73
2023-02-06T11:26:16.386Z,21.17
2023-02-06T11:29:00.414Z,17.87
2023-02-06T11:32:06.875Z,19.03
2023-02-06T11:34:52.181Z,19.53
2023-02-06T11:37:34.764Z,17.10
2023-02-06T11:40:20.029Z,16.30
2023-02-06T11:42:49.885Z,16.90
2023-02-06T11:45:29.657Z,20.17
2023-02-06T11:47:57.070Z,20.73
2023-02-06T11:50:27.353Z,23.10
2023-02-06T11:53:10.754Z,20.70
2023-02-06T11:55:39.792Z,19.67
2023-02-06T11:58:12.418Z,20.60
2023-02-06T12:00:57.111Z,19.63
2023-02-06T12:03:39.247Z,23.20
2023-02-06T12:06:12.629Z,19.67
2023-02-06T12:08:49.603Z,17.40
2023-02-06T12:11:36.641Z,16.13
2023-02-06T12:14:26.195Z,20.23
2023-02-06T12:16:53.166Z,16.47
2023-02-06T12:19:34.535Z,18.40
2023-02-06T12:22:10.736Z,20.00
2023-02-06T12:24:45.851Z,20.63
2023-02-06T12:27:22.067Z,18.27
2023-02-06T12:30:03.768Z,18.03
2023-02-06T12:32:38.458Z,16.83
2023-02-06T12:35:30.312Z,17.10
2023-02-06T12:38:07.927Z,17.37
2023-02-06T12:41:03.264Z,16.77
2023-02-06T12:43:33.448Z,20.30
2023-02-06T12:46:14.281Z,16.50
2023-02-06T12:49:22.990Z,16.50
2023-02-06T12:52:25.671Z,16.93
2023-02-06T12:55:02.032Z,19.10
2023-02-06T12:57:31.269Z,19.90
2023-02-06T13:00:32.649Z,17.43
2023-02-06T13:03:22.320Z,18.13
2023-02-06T13:06:12.552Z,18.57
2023-02-06T13:08:50.236Z,15.73
2023-02-06T13:11:34.981Z,20.70
2023-02-06T13:14:24.536Z,16.50
2023-02-06T13:17:04.687Z,17.77
2023-02-06T13:19:52.268Z,18.23
2023-02-06T13:22:43.331Z,15.13
2023-02-06T13:25:24.940Z,19.57
2023-02-06T13:27:52.880Z,16.93
2023-02-06T13:30:31.713Z,15.57
2023-02-06T13:33:19.998Z,17.57
2023-02-06T13:36:03.959Z,16.40
2023-02-06T13:38:33.442Z,16.57
2023-02-06T13:41:15.576Z,16.10
2023-02-06T13:43:58.322Z,16.67
2023-02-06T13:46:39.320Z,17.37
2023-02-06T13:49:19.915Z,16.83
2023-02-06T13:52:18.710Z,17.57
2023-02-06T13:55:13.848Z,16.63
2023-02-06T13:58:12.589Z,16.53
2023-02-06T14:00:43.362Z,17.23
2023-02-06T14:03:25.972Z,17.93
2023-02-06T14:06:29.506Z,14.70
2023-02-06T14:09:30.417Z,16.13
2023-02-06T14:12:38.770Z,13.93
2023-02-06T14:15:24.971Z,16.20
2023-02-06T14:18:18.900Z,16.13
2023-02-06T14:21:35.325Z,17.37
2023-02-06T14:24:28.781Z,66.70
2023-02-06T14:27:13.050Z,15.53
2023-02-06T14:30:08.105Z,14.90
2023-02-06T14:33:01.656Z,24.10
2023-02-06T14:36:04.987Z,23.70
2023-02-06T14:38:42.059Z,22.27
2023-02-06T14:41:09.342Z,20.80
2023-02-06T14:43:39.511Z,117.30
2023-02-06T14:46:12.367Z,69.97
2023-02-06T14:48:54.704Z,20.90
2023-02-06T14:51:28.642Z,17.27
2023-02-06T14:54:01.660Z,15.13
2023-02-06T14:56:37.023Z,19.00
2023-02-06T14:59:12.836Z,16.10
2023-02-06T15:01:40.944Z,17.90
2023-02-06T15:04:21.810Z,21.03
2023-02-06T15:06:56.869Z,19.17
2023-02-06T15:09:30.919Z,18.23
2023-02-06T15:12:01.187Z,21.40
2023-02-06T15:14:33.100Z,21.27
2023-02-06T15:17:02.449Z,18.83
2023-02-06T15:19:31.496Z,14.53
2023-02-06T15:22:02.325Z,14.80
2023-02-06T15:24:57.667Z,18.27
2023-02-06T15:27:29.578Z,15.23
2023-02-06T15:29:56.849Z,15.23
2023-02-06T15:32:34.820Z,16.50
2023-02-06T15:35:02.476Z,16.43
2023-02-06T15:37:33.153Z,17.53
2023-02-06T15:40:28.333Z,17.00
2023-02-06T15:42:55.469Z,14.27
2023-02-06T15:45:25.492Z,16.87
2023-02-06T15:47:54.379Z,17.97
2023-02-06T15:50:28.630Z,26.43
2023-02-06T15:52:56.134Z,81.90
2023-02-06T15:55:35.371Z,26.10
2023-02-06T15:58:04.516Z,32.63
2023-02-06T16:00:35.549Z,48.47
2023-02-06T16:03:15.634Z,18.43
2023-02-06T16:05:43.010Z,64.90
2023-02-06T16:08:24.924Z,16.67
2023-02-06T16:10:59.316Z,14.80
2023-02-06T16:13:28.717Z,14.57
2023-02-06T16:16:21.523Z,17.87
2023-02-06T16:18:51.929Z,16.60
2023-02-06T16:21:18.558Z,15.10
2023-02-06T16:23:48.484Z,17.10
2023-02-06T16:26:21.582Z,15.17
2023-02-06T16:28:56.806Z,17.83
2023-02-06T16:31:25.812Z,16.50
2023-02-06T16:33:53.687Z,19.63
2023-02-06T16:36:22.368Z,17.53
2023-02-06T16:39:02.717Z,18.53
2023-02-06T16:41:37.691Z,16.23
2023-02-06T16:44:11.147Z,17.50
2023-02-06T16:46:37.704Z,16.93
2023-02-06T16:49:12.554Z,18.80
2023-02-06T16:51:41.237Z,18.65
2023-02-06T16:54:09.517Z,19.70
2023-02-06T16:56:38.723Z,24.97
2023-02-06T16:59:05.548Z,31.37
2023-02-06T17:01:32.367Z,19.47
2023-02-06T17:03:59.043Z,19.27
2023-02-06T17:06:28.380Z,18.87
2023-02-06T17:08:58.897Z,22.30
2023-02-06T17:11:25.458Z,23.80
2023-02-06T17:13:51.988Z,19.03
2023-02-06T17:16:21.558Z,20.47
2023-02-06T17:18:49.221Z,20.77
2023-02-06T17:21:18.262Z,22.73
2023-02-06T17:23:45.695Z,24.97
2023-02-06T17:26:15.032Z,25.23
2023-02-06T17:28:41.976Z,34.33
2023-02-06T17:31:09.383Z,28.17
2023-02-06T17:33:36.293Z,29.30
2023-02-06T17:36:06.372Z,22.37
2023-02-06T17:38:34.604Z,24.00
2023-02-06T17:41:01.166Z,24.97
2023-02-06T17:43:29.498Z,24.17
2023-02-06T17:45:56.235Z,24.30
2023-02-06T17:48:22.843Z,23.60
2023-02-06T17:50:49.467Z,22.23
2023-02-06T17:53:16.427Z,29.83
2023-02-06T17:55:44.976Z,31.80
2023-02-06T17:58:11.570Z,30.10
2023-02-06T18:00:38.877Z,26.07
2023-02-06T18:03:05.654Z,27.97
2023-02-06T18:05:32.359Z,30.00
2023-02-06T18:07:58.915Z,23.20
2023-02-06T18:10:26.348Z,26.80
2023-02-06T18:12:52.945Z,23.40
2023-02-06T18:15:19.756Z,22.73
2023-02-06T18:17:46.369Z,20.97
2023-02-06T18:20:13.869Z,23.43
2023-02-06T18:22:41.204Z,20.50
2023-02-06T18:25:13.298Z,21.27
2023-02-06T18:27:40.607Z,21.27
2023-02-06T18:30:08.279Z,20.63
2023-02-06T18:32:37.175Z,19.93
2023-02-06T18:35:03.999Z,22.03
2023-02-06T18:37:30.545Z,32.83
2023-02-06T18:39:57.155Z,27.53
2023-02-06T18:42:42.726Z,23.27
2023-02-06T18:45:09.661Z,25.07
2023-02-06T18:47:36.296Z,28.87
2023-02-06T18:50:02.844Z,25.20
2023-02-06T18:52:29.430Z,25.07
2023-02-06T18:54:56.035Z,27.73
2023-02-06T18:57:22.588Z,26.80
2023-02-06T18:59:49.176Z,23.47
2023-02-06T19:02:16.054Z,29.83
2023-02-06T19:04:42.743Z,28.57
2023-02-06T19:07:11.568Z,28.73
2023-02-06T19:09:38.694Z,26.67
2023-02-06T19:12:05.496Z,20.53
2023-02-06T19:14:32.210Z,23.27
2023-02-06T19:16:58.911Z,21.60
2023-02-06T19:19:25.567Z,23.63
2023-02-06T19:21:52.110Z,26.97
2023-02-06T19:24:19.192Z,24.67
2023-02-06T19:26:45.837Z,25.27
2023-02-06T19:29:16.785Z,27.90
2023-02-06T19:31:44.159Z,30.57
2023-02-06T19:34:10.790Z,28.90
2023-02-06T19:36:37.382Z,30.30
2023-02-06T19:39:07.491Z,31.03
2023-02-06T19:41:35.031Z,33.60
2023-02-06T19:44:05.649Z,34.67
2023-02-06T19:46:32.755Z,31.67
2023-02-06T19:48:59.292Z,33.43
2023-02-06T19:51:31.646Z,33.83
2023-02-06T19:53:59.119Z,30.70
2023-02-06T19:56:36.181Z,31.70
2023-02-06T19:59:06.296Z,29.33
2023-02-06T20:01:35.374Z,27.63
2023-02-06T20:04:03.027Z,29.53
2023-02-06T20:06:34.791Z,36.93
2023-02-06T20:09:02.770Z,35.40
2023-02-06T20:11:31.601Z,36.40
2023-02-06T20:13:58.395Z,49.47
2023-02-06T20:16:29.059Z,50.57
2023-02-06T20:18:56.678Z,44.87
2023-02-06T20:21:31.592Z,44.17
2023-02-06T20:24:01.047Z,39.30
2023-02-06T20:26:31.591Z,38.33
2023-02-06T20:28:58.587Z,35.03
2023-02-06T20:31:26.616Z,32.77
2023-02-06T20:33:54.046Z,32.37
2023-02-06T20:36:23.691Z,33.63
2023-02-06T20:39:00.522Z,31.13
2023-02-06T20:41:31.067Z,33.00
2023-02-06T20:43:59.240Z,33.07
2023-02-06T20:46:29.548Z,31.90
2023-02-06T20:49:02.257Z,35.10
2023-02-06T20:51:29.756Z,32.50
2023-02-06T20:53:56.921Z,37.87
2023-02-06T20:56:24.210Z,47.57
2023-02-06T20:58:51.368Z,46.10
2023-02-06T21:01:23.500Z,61.87
2023-02-06T21:03:52.011Z,58.57
2023-02-06T21:06:18.773Z,55.33
2023-02-06T21:08:46.974Z,48.13
2023-02-06T21:11:13.965Z,49.77
2023-02-06T21:13:41.315Z,39.60
2023-02-06T21:16:10.439Z,40.37
2023-02-06T21:18:38.731Z,45.33
2023-02-06T21:21:09.554Z,43.57
2023-02-06T21:23:40.994Z,40.83
2023-02-06T21:26:10.310Z,45.17
2023-02-06T21:28:37.594Z,46.63
2023-02-06T21:31:13.885Z,43.50
2023-02-06T21:33:40.677Z,38.97
2023-02-06T21:36:07.866Z,43.97
2023-02-06T21:38:36.004Z,38.30
2023-02-06T21:41:11.068Z,36.03
2023-02-06T21:43:37.814Z,34.67
2023-02-06T21:46:05.274Z,34.33
2023-02-06T21:48:33.230Z,37.30
2023-02-06T21:51:10.404Z,34.70
2023-02-06T21:53:37.578Z,35.13
2023-02-06T21:56:09.449Z,33.47
2023-02-06T21:58:36.775Z,34.03
2023-02-06T22:01:08.830Z,30.23
2023-02-06T22:03:35.894Z,34.27
2023-02-06T22:06:08.567Z,32.40
2023-02-06T22:08:39.947Z,35.23
2023-02-06T22:11:15.234Z,29.90
2023-02-06T22:13:42.723Z,35.13
2023-02-06T22:16:10.446Z,31.50
2023-02-06T22:18:37.622Z,26.93
2023-02-06T22:21:10.890Z,26.33
2023-02-06T22:23:38.110Z,29.77
2023-02-06T22:26:04.888Z,30.13
2023-02-06T22:28:32.110Z,30.03
2023-02-06T22:31:10.852Z,28.40
2023-02-06T22:33:37.867Z,31.07
2023-02-06T22:36:05.945Z,32.63
2023-02-06T22:38:33.057Z,31.83
2023-02-06T22:41:05.421Z,30.90
2023-02-06T22:43:34.088Z,31.47
2023-02-06T22:46:00.847Z,33.23
2023-02-06T22:48:27.504Z,31.37
2023-02-06T22:50:54.724Z,28.87
2023-02-06T22:53:31.813Z,28.07
2023-02-06T22:56:22.176Z,31.27
2023-02-06T22:58:49.690Z,29.10
2023-02-06T23:01:17.815Z,29.10
2023-02-06T23:03:44.802Z,26.67
2023-02-06T23:06:13.820Z,27.80
2023-02-06T23:08:41.152Z,25.97
2023-02-06T23:11:08.225Z,25.37
2023-02-06T23:13:35.622Z,28.83
2023-02-06T23:16:02.769Z,30.27
2023-02-06T23:18:29.610Z,27.87
2023-02-06T23:20:58.299Z,26.10
2023-02-06T23:23:25.041Z,27.30
2023-02-06T23:25:52.359Z,28.33
2023-02-06T23:28:20.427Z,28.80
2023-02-06T23:30:47.447Z,25.07
2023-02-06T23:33:14.517Z,29.00
2023-02-06T23:35:41.952Z,28.27
2023-02-06T23:38:09.395Z,28.37
2023-02-06T23:40:36.684Z,24.10
2023-02-06T23:43:04.142Z,22.80
2023-02-06T23:45:31.234Z,22.07
2023-02-06T23:47:58.076Z,24.70
2023-02-06T23:50:25.768Z,22.33
2023-02-06T23:52:52.379Z,23.60
2023-02-06T23:55:19.161Z,24.50
2023-02-06T23:57:45.914Z,24.87
